Portada
METAR-TAF:

METAR-TAF

Aeroports :

Cambridge, Anglaterra

latitud: 52-12N, longitud: 000-11E, altitud: 15 m

Observació

L'informe es va fer fa 22 hores i 18 minuts, a les 17:50 UTC
Vent 15 kt del Oest
Temperatura 10°C
Humitat 87%
Pressió 1001 hPa
Visibilitat: 9000 m
Escasses núvols a una alçada de 300 ft
Núvols disperses a una alçada de 2400 ft
xàfecs de pluja

METAR: EGSC 061750Z 27015KT 9000 -SHRA FEW003 SCT024 10/08 Q1001 RESHRA

Hora: 16:08 (16:08 UTC)

Pronòstic

L'informe es va fer fa 26 hores i 5 minuts, a les 14:03 UTC
Pronòstic vàlid del 06 a les 15 UTC al 06 a les 19 UTC
Vent 13 kt del Sud-Oest
Visibilitat 10 km o més
Núvols disperses a una alçada de 2500 ft
Temporalment
l' 06 a les 15 UTC al 06 a les 19 UTC
Vent 16 kt del Oest/Sud-Oest amb ràfegues de 26 kt
Temporalment
l' 06 a les 15 UTC al 06 a les 19 UTC
Visibilitat: 6000 m
xàfecs de pluja

TAF: EGSC 061403Z 0615/0619 23013KT 9999 SCT025 TEMPO 0615/0619 24016G26KT TEMPO 0615/0619 6000 SHRA

Observacions i pronòstics meteorològics de més de 4000 aeroports (METAR i TAF).

Les estacions disponibles són els punts grocs i vermells al mapa.

Posi el ratolí al punt desitjat per veure el nom de l'estació.

Feu clic per veure les observacions i els pronòstics meteorològics.

Per canviar el mapa: feu clic els botons verds amb una creu de color negre per apropar; al botó verd amb un guió per allunyar la imatge; o en les fletxes verdes per a mapes adjacents.


METAR-TAF: